sensor_id;sensor_type;location;lat;lon;timestamp;temperature;humidity
17639;DHT22;8938;53.546;9.954;2023-09-30T00:01:43;18.10;99.90
17639;DHT22;8938;53.546;9.954;2023-09-30T00:04:09;18.00;99.90
17639;DHT22;8938;53.546;9.954;2023-09-30T00:06:35;17.90;99.90
17639;DHT22;8938;53.546;9.954;2023-09-30T00:09:00;17.90;99.90
17639;DHT22;8938;53.546;9.954;2023-09-30T00:11:26;17.90;99.90
17639;DHT22;8938;53.546;9.954;2023-09-30T00:13:52;17.80;99.90
17639;DHT22;8938;53.546;9.954;2023-09-30T00:16:17;17.80;99.90
17639;DHT22;8938;53.546;9.954;2023-09-30T00:18:44;17.70;99.90
17639;DHT22;8938;53.546;9.954;2023-09-30T00:21:10;17.70;99.90
17639;DHT22;8938;53.546;9.954;2023-09-30T00:23:36;17.60;99.90
17639;DHT22;8938;53.546;9.954;2023-09-30T00:26:01;17.50;99.90
17639;DHT22;8938;53.546;9.954;2023-09-30T00:28:27;17.50;99.90
17639;DHT22;8938;53.546;9.954;2023-09-30T00:30:53;17.50;99.90
17639;DHT22;8938;53.546;9.954;2023-09-30T00:33:19;17.50;99.90
17639;DHT22;8938;53.546;9.954;2023-09-30T00:35:44;17.40;99.90
17639;DHT22;8938;53.546;9.954;2023-09-30T00:38:10;17.40;99.90
17639;DHT22;8938;53.546;9.954;2023-09-30T00:40:36;17.40;99.90
17639;DHT22;8938;53.546;9.954;2023-09-30T00:43:02;17.50;99.90
17639;DHT22;8938;53.546;9.954;2023-09-30T00:45:28;17.60;99.90
17639;DHT22;8938;53.546;9.954;2023-09-30T00:47:54;17.60;99.90
17639;DHT22;8938;53.546;9.954;2023-09-30T00:50:20;17.60;99.90
17639;DHT22;8938;53.546;9.954;2023-09-30T00:52:47;17.60;99.90
17639;DHT22;8938;53.546;9.954;2023-09-30T00:55:15;17.60;99.90
17639;DHT22;8938;53.546;9.954;2023-09-30T00:57:41;17.60;99.90
17639;DHT22;8938;53.546;9.954;2023-09-30T01:00:07;17.40;99.90
17639;DHT22;8938;53.546;9.954;2023-09-30T01:02:39;17.60;99.90
17639;DHT22;8938;53.546;9.954;2023-09-30T01:05:07;17.50;99.90
17639;DHT22;8938;53.546;9.954;2023-09-30T01:07:34;17.40;99.90
17639;DHT22;8938;53.546;9.954;2023-09-30T01:09:59;17.40;99.90
17639;DHT22;8938;53.546;9.954;2023-09-30T01:12:25;17.30;99.90
17639;DHT22;8938;53.546;9.954;2023-09-30T01:14:50;17.30;99.90
17639;DHT22;8938;53.546;9.954;2023-09-30T01:17:22;17.30;99.90
17639;DHT22;8938;53.546;9.954;2023-09-30T01:19:47;17.30;99.90
17639;DHT22;8938;53.546;9.954;2023-09-30T01:22:15;17.30;99.90
17639;DHT22;8938;53.546;9.954;2023-09-30T01:24:42;17.40;99.90
17639;DHT22;8938;53.546;9.954;2023-09-30T01:27:11;17.40;99.90
17639;DHT22;8938;53.546;9.954;2023-09-30T01:29:38;17.40;99.90
17639;DHT22;8938;53.546;9.954;2023-09-30T01:32:07;17.30;99.90
17639;DHT22;8938;53.546;9.954;2023-09-30T01:34:36;17.20;99.90
17639;DHT22;8938;53.546;9.954;2023-09-30T01:37:01;17.20;99.90
17639;DHT22;8938;53.546;9.954;2023-09-30T01:39:27;17.20;99.90
17639;DHT22;8938;53.546;9.954;2023-09-30T01:41:52;17.10;99.90
17639;DHT22;8938;53.546;9.954;2023-09-30T01:44:19;17.10;99.90
17639;DHT22;8938;53.546;9.954;2023-09-30T01:46:44;17.10;99.90
17639;DHT22;8938;53.546;9.954;2023-09-30T01:49:10;17.20;99.90
17639;DHT22;8938;53.546;9.954;2023-09-30T01:51:36;17.20;99.90
17639;DHT22;8938;53.546;9.954;2023-09-30T01:54:01;17.10;99.90
17639;DHT22;8938;53.546;9.954;2023-09-30T01:56:27;17.00;99.90
17639;DHT22;8938;53.546;9.954;2023-09-30T01:58:52;17.00;99.90
17639;DHT22;8938;53.546;9.954;2023-09-30T02:01:18;17.00;99.90
17639;DHT22;8938;53.546;9.954;2023-09-30T02:03:43;17.00;99.90
17639;DHT22;8938;53.546;9.954;2023-09-30T02:06:09;17.00;99.90
17639;DHT22;8938;53.546;9.954;2023-09-30T02:08:35;17.00;99.90
17639;DHT22;8938;53.546;9.954;2023-09-30T02:11:04;17.00;99.90
17639;DHT22;8938;53.546;9.954;2023-09-30T02:13:35;16.90;99.90
17639;DHT22;8938;53.546;9.954;2023-09-30T02:16:00;16.90;99.90
17639;DHT22;8938;53.546;9.954;2023-09-30T02:18:27;17.00;99.90
17639;DHT22;8938;53.546;9.954;2023-09-30T02:20:52;16.90;99.90
17639;DHT22;8938;53.546;9.954;2023-09-30T02:23:18;16.90;99.90
17639;DHT22;8938;53.546;9.954;2023-09-30T02:25:44;16.90;99.90
17639;DHT22;8938;53.546;9.954;2023-09-30T02:28:10;16.80;99.90
17639;DHT22;8938;53.546;9.954;2023-09-30T02:30:36;16.70;99.90
17639;DHT22;8938;53.546;9.954;2023-09-30T02:33:02;16.60;99.90
17639;DHT22;8938;53.546;9.954;2023-09-30T02:35:28;16.50;99.90
17639;DHT22;8938;53.546;9.954;2023-09-30T02:37:55;16.60;99.90
17639;DHT22;8938;53.546;9.954;2023-09-30T02:40:20;16.50;99.90
17639;DHT22;8938;53.546;9.954;2023-09-30T02:42:46;16.60;99.90
17639;DHT22;8938;53.546;9.954;2023-09-30T02:45:15;16.60;99.90
17639;DHT22;8938;53.546;9.954;2023-09-30T02:47:42;16.70;99.90
17639;DHT22;8938;53.546;9.954;2023-09-30T02:50:09;16.70;99.90
17639;DHT22;8938;53.546;9.954;2023-09-30T02:52:36;16.60;99.90
17639;DHT22;8938;53.546;9.954;2023-09-30T02:55:02;16.60;99.90
17639;DHT22;8938;53.546;9.954;2023-09-30T02:57:28;16.50;99.90
17639;DHT22;8938;53.546;9.954;2023-09-30T02:59:54;16.50;99.90
17639;DHT22;8938;53.546;9.954;2023-09-30T03:02:20;16.50;99.90
17639;DHT22;8938;53.546;9.954;2023-09-30T03:04:46;16.60;99.90
17639;DHT22;8938;53.546;9.954;2023-09-30T03:07:13;16.60;99.90
17639;DHT22;8938;53.546;9.954;2023-09-30T03:09:39;16.60;99.90
17639;DHT22;8938;53.546;9.954;2023-09-30T03:12:05;16.50;99.90
17639;DHT22;8938;53.546;9.954;2023-09-30T03:14:31;16.40;99.90
17639;DHT22;8938;53.546;9.954;2023-09-30T03:16:57;16.40;99.90
17639;DHT22;8938;53.546;9.954;2023-09-30T03:19:23;16.40;99.90
17639;DHT22;8938;53.546;9.954;2023-09-30T03:21:49;16.50;99.90
17639;DHT22;8938;53.546;9.954;2023-09-30T03:24:15;16.50;99.90
17639;DHT22;8938;53.546;9.954;2023-09-30T03:26:40;16.50;99.90
17639;DHT22;8938;53.546;9.954;2023-09-30T03:29:07;16.50;99.90
17639;DHT22;8938;53.546;9.954;2023-09-30T03:31:34;16.40;99.90
17639;DHT22;8938;53.546;9.954;2023-09-30T03:34:00;16.40;99.90
17639;DHT22;8938;53.546;9.954;2023-09-30T03:36:26;16.40;99.90
17639;DHT22;8938;53.546;9.954;2023-09-30T03:38:55;16.40;99.90
17639;DHT22;8938;53.546;9.954;2023-09-30T03:41:24;16.40;99.90
17639;DHT22;8938;53.546;9.954;2023-09-30T03:43:50;16.40;99.90
17639;DHT22;8938;53.546;9.954;2023-09-30T03:46:16;16.50;99.90
17639;DHT22;8938;53.546;9.954;2023-09-30T03:48:42;16.50;99.90
17639;DHT22;8938;53.546;9.954;2023-09-30T03:51:13;16.70;99.90
17639;DHT22;8938;53.546;9.954;2023-09-30T03:53:43;16.70;99.90
17639;DHT22;8938;53.546;9.954;2023-09-30T03:56:09;16.60;99.90
17639;DHT22;8938;53.546;9.954;2023-09-30T03:58:40;16.60;99.90
17639;DHT22;8938;53.546;9.954;2023-09-30T04:01:06;16.60;99.90
17639;DHT22;8938;53.546;9.954;2023-09-30T04:03:33;16.50;99.90
17639;DHT22;8938;53.546;9.954;2023-09-30T04:05:59;16.30;99.90
17639;DHT22;8938;53.546;9.954;2023-09-30T04:08:24;16.40;99.90
17639;DHT22;8938;53.546;9.954;2023-09-30T04:10:50;16.30;99.90
17639;DHT22;8938;53.546;9.954;2023-09-30T04:13:15;16.30;99.90
17639;DHT22;8938;53.546;9.954;2023-09-30T04:15:42;16.20;99.90
17639;DHT22;8938;53.546;9.954;2023-09-30T04:18:10;16.30;99.90
17639;DHT22;8938;53.546;9.954;2023-09-30T04:20:36;16.20;99.90
17639;DHT22;8938;53.546;9.954;2023-09-30T04:23:05;16.20;99.90
17639;DHT22;8938;53.546;9.954;2023-09-30T04:25:32;16.20;99.90
17639;DHT22;8938;53.546;9.954;2023-09-30T04:27:57;16.30;99.90
17639;DHT22;8938;53.546;9.954;2023-09-30T04:30:23;16.30;99.90
17639;DHT22;8938;53.546;9.954;2023-09-30T04:32:48;16.30;99.90
17639;DHT22;8938;53.546;9.954;2023-09-30T04:35:14;16.20;99.90
17639;DHT22;8938;53.546;9.954;2023-09-30T04:37:40;16.20;99.90
17639;DHT22;8938;53.546;9.954;2023-09-30T04:40:08;16.20;99.90
17639;DHT22;8938;53.546;9.954;2023-09-30T04:42:41;16.20;99.90
17639;DHT22;8938;53.546;9.954;2023-09-30T04:45:07;16.20;99.90
17639;DHT22;8938;53.546;9.954;2023-09-30T04:47:33;16.30;99.90
17639;DHT22;8938;53.546;9.954;2023-09-30T04:49:59;16.30;99.90
17639;DHT22;8938;53.546;9.954;2023-09-30T04:52:24;16.20;99.90
17639;DHT22;8938;53.546;9.954;2023-09-30T04:54:53;16.20;99.90
17639;DHT22;8938;53.546;9.954;2023-09-30T04:57:18;16.20;99.90
17639;DHT22;8938;53.546;9.954;2023-09-30T04:59:44;16.30;99.90
17639;DHT22;8938;53.546;9.954;2023-09-30T05:02:11;16.30;99.90
17639;DHT22;8938;53.546;9.954;2023-09-30T05:04:40;16.40;99.90
17639;DHT22;8938;53.546;9.954;2023-09-30T05:07:06;16.50;99.90
17639;DHT22;8938;53.546;9.954;2023-09-30T05:09:31;16.40;99.90
17639;DHT22;8938;53.546;9.954;2023-09-30T05:11:57;16.40;99.90
17639;DHT22;8938;53.546;9.954;2023-09-30T05:14:22;16.40;99.90
17639;DHT22;8938;53.546;9.954;2023-09-30T05:16:48;16.40;99.90
17639;DHT22;8938;53.546;9.954;2023-09-30T05:19:13;16.40;99.90
17639;DHT22;8938;53.546;9.954;2023-09-30T05:21:39;16.40;99.90
17639;DHT22;8938;53.546;9.954;2023-09-30T05:24:04;16.50;99.90
17639;DHT22;8938;53.546;9.954;2023-09-30T05:26:31;16.50;99.90
17639;DHT22;8938;53.546;9.954;2023-09-30T05:28:56;16.50;99.90
17639;DHT22;8938;53.546;9.954;2023-09-30T05:31:22;16.50;99.90
17639;DHT22;8938;53.546;9.954;2023-09-30T05:33:48;16.30;99.90
17639;DHT22;8938;53.546;9.954;2023-09-30T05:36:13;16.40;99.90
17639;DHT22;8938;53.546;9.954;2023-09-30T05:38:39;16.60;99.90
17639;DHT22;8938;53.546;9.954;2023-09-30T05:41:05;16.40;99.90
17639;DHT22;8938;53.546;9.954;2023-09-30T05:43:32;16.40;99.90
17639;DHT22;8938;53.546;9.954;2023-09-30T05:45:57;16.30;99.90
17639;DHT22;8938;53.546;9.954;2023-09-30T05:48:23;16.40;99.90
17639;DHT22;8938;53.546;9.954;2023-09-30T05:50:49;16.30;99.90
17639;DHT22;8938;53.546;9.954;2023-09-30T05:53:15;16.30;99.90
17639;DHT22;8938;53.546;9.954;2023-09-30T05:55:41;16.40;99.90
17639;DHT22;8938;53.546;9.954;2023-09-30T05:58:09;16.40;99.90
17639;DHT22;8938;53.546;9.954;2023-09-30T06:00:34;16.40;99.90
17639;DHT22;8938;53.546;9.954;2023-09-30T06:03:01;16.40;99.90
17639;DHT22;8938;53.546;9.954;2023-09-30T06:05:27;16.50;99.90
17639;DHT22;8938;53.546;9.954;2023-09-30T06:07:55;16.50;99.90
17639;DHT22;8938;53.546;9.954;2023-09-30T06:10:21;16.70;99.90
17639;DHT22;8938;53.546;9.954;2023-09-30T06:12:48;16.50;99.90
17639;DHT22;8938;53.546;9.954;2023-09-30T06:15:17;16.50;99.90
17639;DHT22;8938;53.546;9.954;2023-09-30T06:17:48;16.50;99.90
17639;DHT22;8938;53.546;9.954;2023-09-30T06:20:14;16.50;99.90
17639;DHT22;8938;53.546;9.954;2023-09-30T06:22:44;16.60;99.90
17639;DHT22;8938;53.546;9.954;2023-09-30T06:25:15;16.70;99.90
17639;DHT22;8938;53.546;9.954;2023-09-30T06:27:42;16.60;99.90
17639;DHT22;8938;53.546;9.954;2023-09-30T06:30:08;16.70;99.90
17639;DHT22;8938;53.546;9.954;2023-09-30T06:32:34;16.50;99.90
17639;DHT22;8938;53.546;9.954;2023-09-30T06:35:02;16.50;99.90
17639;DHT22;8938;53.546;9.954;2023-09-30T06:37:28;16.50;99.90
17639;DHT22;8938;53.546;9.954;2023-09-30T06:39:55;16.70;99.90
17639;DHT22;8938;53.546;9.954;2023-09-30T06:42:21;16.70;99.90
17639;DHT22;8938;53.546;9.954;2023-09-30T06:44:46;16.80;99.90
17639;DHT22;8938;53.546;9.954;2023-09-30T06:47:12;16.80;99.90
17639;DHT22;8938;53.546;9.954;2023-09-30T06:49:38;16.70;99.90
17639;DHT22;8938;53.546;9.954;2023-09-30T06:52:04;16.70;99.90
17639;DHT22;8938;53.546;9.954;2023-09-30T06:54:33;16.70;99.90
17639;DHT22;8938;53.546;9.954;2023-09-30T06:56:59;16.80;99.90
17639;DHT22;8938;53.546;9.954;2023-09-30T06:59:25;16.80;99.90
17639;DHT22;8938;53.546;9.954;2023-09-30T07:01:51;17.00;99.90
17639;DHT22;8938;53.546;9.954;2023-09-30T07:04:17;17.00;99.90
17639;DHT22;8938;53.546;9.954;2023-09-30T07:06:42;17.10;99.90
17639;DHT22;8938;53.546;9.954;2023-09-30T07:09:08;17.00;99.90
17639;DHT22;8938;53.546;9.954;2023-09-30T07:11:35;17.10;99.90
17639;DHT22;8938;53.546;9.954;2023-09-30T07:14:01;17.10;99.90
17639;DHT22;8938;53.546;9.954;2023-09-30T07:16:26;17.20;99.90
17639;DHT22;8938;53.546;9.954;2023-09-30T07:18:52;17.30;99.90
17639;DHT22;8938;53.546;9.954;2023-09-30T07:21:18;17.30;99.90
17639;DHT22;8938;53.546;9.954;2023-09-30T07:23:43;17.30;99.90
17639;DHT22;8938;53.546;9.954;2023-09-30T07:26:09;17.40;99.90
17639;DHT22;8938;53.546;9.954;2023-09-30T07:28:34;17.50;99.90
17639;DHT22;8938;53.546;9.954;2023-09-30T07:31:00;17.60;99.90
17639;DHT22;8938;53.546;9.954;2023-09-30T07:33:25;17.60;99.90
17639;DHT22;8938;53.546;9.954;2023-09-30T07:35:51;17.70;99.90
17639;DHT22;8938;53.546;9.954;2023-09-30T07:38:17;17.70;99.90
17639;DHT22;8938;53.546;9.954;2023-09-30T07:40:43;17.70;99.90
17639;DHT22;8938;53.546;9.954;2023-09-30T07:43:08;17.80;99.90
17639;DHT22;8938;53.546;9.954;2023-09-30T07:45:34;17.90;99.90
17639;DHT22;8938;53.546;9.954;2023-09-30T07:47:59;17.90;99.90
17639;DHT22;8938;53.546;9.954;2023-09-30T07:50:26;18.00;99.90
17639;DHT22;8938;53.546;9.954;2023-09-30T07:52:52;17.90;99.90
17639;DHT22;8938;53.546;9.954;2023-09-30T07:55:17;18.10;99.90
17639;DHT22;8938;53.546;9.954;2023-09-30T07:57:43;18.20;99.90
17639;DHT22;8938;53.546;9.954;2023-09-30T08:00:09;18.30;99.90
17639;DHT22;8938;53.546;9.954;2023-09-30T08:02:40;18.30;99.90
17639;DHT22;8938;53.546;9.954;2023-09-30T08:05:06;18.30;99.90
17639;DHT22;8938;53.546;9.954;2023-09-30T08:07:32;18.40;99.90
17639;DHT22;8938;53.546;9.954;2023-09-30T08:09:58;18.50;99.90
17639;DHT22;8938;53.546;9.954;2023-09-30T08:12:24;18.50;99.90
17639;DHT22;8938;53.546;9.954;2023-09-30T08:14:49;18.70;99.90
17639;DHT22;8938;53.546;9.954;2023-09-30T08:17:17;18.70;99.90
17639;DHT22;8938;53.546;9.954;2023-09-30T08:19:43;18.70;99.90
17639;DHT22;8938;53.546;9.954;2023-09-30T08:22:09;18.80;99.90
17639;DHT22;8938;53.546;9.954;2023-09-30T08:24:35;18.90;99.90
17639;DHT22;8938;53.546;9.954;2023-09-30T08:27:01;19.00;99.90
17639;DHT22;8938;53.546;9.954;2023-09-30T08:29:26;19.10;99.90
17639;DHT22;8938;53.546;9.954;2023-09-30T08:31:52;19.30;99.90
17639;DHT22;8938;53.546;9.954;2023-09-30T08:34:17;19.20;99.90
17639;DHT22;8938;53.546;9.954;2023-09-30T08:36:45;19.30;99.90
17639;DHT22;8938;53.546;9.954;2023-09-30T08:39:10;19.30;99.90
17639;DHT22;8938;53.546;9.954;2023-09-30T08:41:36;19.30;99.90
17639;DHT22;8938;53.546;9.954;2023-09-30T08:44:03;19.40;99.90
17639;DHT22;8938;53.546;9.954;2023-09-30T08:46:33;19.40;99.90
17639;DHT22;8938;53.546;9.954;2023-09-30T08:49:04;19.50;99.90
17639;DHT22;8938;53.546;9.954;2023-09-30T08:51:30;19.60;99.90
17639;DHT22;8938;53.546;9.954;2023-09-30T08:53:57;19.80;99.90
17639;DHT22;8938;53.546;9.954;2023-09-30T08:56:27;19.60;99.90
17639;DHT22;8938;53.546;9.954;2023-09-30T08:58:58;19.60;99.90
17639;DHT22;8938;53.546;9.954;2023-09-30T09:01:28;19.70;99.90
17639;DHT22;8938;53.546;9.954;2023-09-30T09:03:56;19.80;99.90
17639;DHT22;8938;53.546;9.954;2023-09-30T09:06:22;19.90;99.90
17639;DHT22;8938;53.546;9.954;2023-09-30T09:08:48;19.90;99.90
17639;DHT22;8938;53.546;9.954;2023-09-30T09:11:15;20.10;99.90
17639;DHT22;8938;53.546;9.954;2023-09-30T09:13:50;20.30;99.90
17639;DHT22;8938;53.546;9.954;2023-09-30T09:16:18;20.50;99.90
17639;DHT22;8938;53.546;9.954;2023-09-30T09:18:44;21.00;99.90
17639;DHT22;8938;53.546;9.954;2023-09-30T09:21:14;20.50;99.90
17639;DHT22;8938;53.546;9.954;2023-09-30T09:23:46;20.60;99.90
17639;DHT22;8938;53.546;9.954;2023-09-30T09:26:28;20.70;99.90
17639;DHT22;8938;53.546;9.954;2023-09-30T09:28:59;21.20;99.90
17639;DHT22;8938;53.546;9.954;2023-09-30T09:31:33;21.50;99.90
17639;DHT22;8938;53.546;9.954;2023-09-30T09:34:03;21.60;99.90
17639;DHT22;8938;53.546;9.954;2023-09-30T09:36:42;21.50;99.90
17639;DHT22;8938;53.546;9.954;2023-09-30T09:39:09;21.40;99.90
17639;DHT22;8938;53.546;9.954;2023-09-30T09:41:51;21.30;99.90
17639;DHT22;8938;53.546;9.954;2023-09-30T09:44:19;21.30;99.90
17639;DHT22;8938;53.546;9.954;2023-09-30T09:46:47;21.20;99.90
17639;DHT22;8938;53.546;9.954;2023-09-30T09:49:15;21.20;99.90
17639;DHT22;8938;53.546;9.954;2023-09-30T09:51:43;21.10;99.90
17639;DHT22;8938;53.546;9.954;2023-09-30T09:54:09;21.10;99.90
17639;DHT22;8938;53.546;9.954;2023-09-30T09:56:36;21.10;99.90
17639;DHT22;8938;53.546;9.954;2023-09-30T09:59:03;21.20;99.90
17639;DHT22;8938;53.546;9.954;2023-09-30T10:01:30;21.20;99.90
17639;DHT22;8938;53.546;9.954;2023-09-30T10:03:58;21.30;99.90
17639;DHT22;8938;53.546;9.954;2023-09-30T10:06:24;21.20;99.90
17639;DHT22;8938;53.546;9.954;2023-09-30T10:08:51;21.30;99.90
17639;DHT22;8938;53.546;9.954;2023-09-30T10:11:18;21.50;99.90
17639;DHT22;8938;53.546;9.954;2023-09-30T10:13:51;21.30;99.90
17639;DHT22;8938;53.546;9.954;2023-09-30T10:19:21;21.50;99.90
17639;DHT22;8938;53.546;9.954;2023-09-30T10:24:51;21.60;99.90
17639;DHT22;8938;53.546;9.954;2023-09-30T10:40:53;21.90;99.90
17639;DHT22;8938;53.546;9.954;2023-09-30T10:43:33;22.00;99.90
17639;DHT22;8938;53.546;9.954;2023-09-30T10:46:02;22.20;99.90
17639;DHT22;8938;53.546;9.954;2023-09-30T10:51:02;22.40;99.90
17639;DHT22;8938;53.546;9.954;2023-09-30T10:53:46;22.40;99.90
17639;DHT22;8938;53.546;9.954;2023-09-30T10:56:13;22.60;99.90
17639;DHT22;8938;53.546;9.954;2023-09-30T11:01:22;22.70;99.90
17639;DHT22;8938;53.546;9.954;2023-09-30T11:03:48;22.60;99.90
17639;DHT22;8938;53.546;9.954;2023-09-30T11:06:19;22.40;99.90
17639;DHT22;8938;53.546;9.954;2023-09-30T11:08:57;22.30;99.90
17639;DHT22;8938;53.546;9.954;2023-09-30T11:11:39;22.40;99.90
17639;DHT22;8938;53.546;9.954;2023-09-30T11:14:28;22.30;99.90
17639;DHT22;8938;53.546;9.954;2023-09-30T11:16:57;22.10;99.90
17639;DHT22;8938;53.546;9.954;2023-09-30T11:19:23;22.20;99.90
17639;DHT22;8938;53.546;9.954;2023-09-30T11:21:50;22.10;99.90
17639;DHT22;8938;53.546;9.954;2023-09-30T11:24:16;22.10;99.90
17639;DHT22;8938;53.546;9.954;2023-09-30T11:26:43;22.10;99.90
17639;DHT22;8938;53.546;9.954;2023-09-30T11:31:42;22.20;99.90
17639;DHT22;8938;53.546;9.954;2023-09-30T11:34:09;22.10;99.90
17639;DHT22;8938;53.546;9.954;2023-09-30T11:36:39;22.10;99.90
17639;DHT22;8938;53.546;9.954;2023-09-30T11:39:05;22.10;99.90
17639;DHT22;8938;53.546;9.954;2023-09-30T11:41:35;22.10;99.90
17639;DHT22;8938;53.546;9.954;2023-09-30T11:44:06;22.20;99.90
17639;DHT22;8938;53.546;9.954;2023-09-30T11:46:50;22.20;99.90
17639;DHT22;8938;53.546;9.954;2023-09-30T11:52:08;22.00;99.90
17639;DHT22;8938;53.546;9.954;2023-09-30T11:54:42;21.90;99.90
17639;DHT22;8938;53.546;9.954;2023-09-30T11:57:14;21.80;99.90
17639;DHT22;8938;53.546;9.954;2023-09-30T11:59:44;21.90;99.90
17639;DHT22;8938;53.546;9.954;2023-09-30T12:02:14;22.00;99.90
17639;DHT22;8938;53.546;9.954;2023-09-30T12:04:43;22.20;99.90
17639;DHT22;8938;53.546;9.954;2023-09-30T12:07:10;22.30;99.90
17639;DHT22;8938;53.546;9.954;2023-09-30T12:09:36;22.70;99.90
17639;DHT22;8938;53.546;9.954;2023-09-30T12:12:03;22.70;99.40
17639;DHT22;8938;53.546;9.954;2023-09-30T12:14:29;22.80;99.10
17639;DHT22;8938;53.546;9.954;2023-09-30T12:16:56;23.10;99.50
17639;DHT22;8938;53.546;9.954;2023-09-30T12:19:22;23.40;99.10
17639;DHT22;8938;53.546;9.954;2023-09-30T12:21:47;23.50;98.50
17639;DHT22;8938;53.546;9.954;2023-09-30T12:24:18;23.40;98.90
17639;DHT22;8938;53.546;9.954;2023-09-30T12:26:47;23.60;98.70
17639;DHT22;8938;53.546;9.954;2023-09-30T12:29:20;23.50;98.00
17639;DHT22;8938;53.546;9.954;2023-09-30T12:31:48;23.20;98.20
17639;DHT22;8938;53.546;9.954;2023-09-30T12:34:14;23.10;98.30
17639;DHT22;8938;53.546;9.954;2023-09-30T12:36:40;22.80;98.40
17639;DHT22;8938;53.546;9.954;2023-09-30T12:39:06;22.70;98.30
17639;DHT22;8938;53.546;9.954;2023-09-30T12:41:43;22.50;98.40
17639;DHT22;8938;53.546;9.954;2023-09-30T12:44:09;22.70;98.30
17639;DHT22;8938;53.546;9.954;2023-09-30T12:46:35;22.70;98.40
17639;DHT22;8938;53.546;9.954;2023-09-30T12:49:03;23.20;97.60
17639;DHT22;8938;53.546;9.954;2023-09-30T12:51:28;23.10;96.60
17639;DHT22;8938;53.546;9.954;2023-09-30T12:53:54;23.10;96.60
17639;DHT22;8938;53.546;9.954;2023-09-30T12:56:19;23.10;96.80
17639;DHT22;8938;53.546;9.954;2023-09-30T12:58:45;23.10;97.00
17639;DHT22;8938;53.546;9.954;2023-09-30T13:01:11;23.10;97.00
17639;DHT22;8938;53.546;9.954;2023-09-30T13:03:37;22.80;97.00
17639;DHT22;8938;53.546;9.954;2023-09-30T13:06:02;22.80;97.40
17639;DHT22;8938;53.546;9.954;2023-09-30T13:08:29;22.70;97.40
17639;DHT22;8938;53.546;9.954;2023-09-30T13:11:01;22.60;97.60
17639;DHT22;8938;53.546;9.954;2023-09-30T13:13:31;22.40;97.70
17639;DHT22;8938;53.546;9.954;2023-09-30T13:16:02;22.40;97.80
17639;DHT22;8938;53.546;9.954;2023-09-30T13:18:27;22.70;98.00
17639;DHT22;8938;53.546;9.954;2023-09-30T13:20:53;23.10;98.00
17639;DHT22;8938;53.546;9.954;2023-09-30T13:23:19;23.50;97.80
17639;DHT22;8938;53.546;9.954;2023-09-30T13:25:45;23.70;97.40
17639;DHT22;8938;53.546;9.954;2023-09-30T13:28:10;23.60;97.30
17639;DHT22;8938;53.546;9.954;2023-09-30T13:30:37;23.40;97.20
17639;DHT22;8938;53.546;9.954;2023-09-30T13:33:03;23.30;97.50
17639;DHT22;8938;53.546;9.954;2023-09-30T13:35:28;23.20;97.60
17639;DHT22;8938;53.546;9.954;2023-09-30T13:37:54;23.30;97.60
17639;DHT22;8938;53.546;9.954;2023-09-30T13:40:19;23.20;97.40
17639;DHT22;8938;53.546;9.954;2023-09-30T13:42:45;23.10;97.20
17639;DHT22;8938;53.546;9.954;2023-09-30T13:45:12;23.20;97.40
17639;DHT22;8938;53.546;9.954;2023-09-30T13:47:37;23.30;97.30
17639;DHT22;8938;53.546;9.954;2023-09-30T13:50:03;23.30;97.00
17639;DHT22;8938;53.546;9.954;2023-09-30T13:52:29;23.20;96.80
17639;DHT22;8938;53.546;9.954;2023-09-30T13:54:55;22.90;96.70
17639;DHT22;8938;53.546;9.954;2023-09-30T13:57:21;23.10;97.20
17639;DHT22;8938;53.546;9.954;2023-09-30T13:59:46;23.00;97.10
17639;DHT22;8938;53.546;9.954;2023-09-30T14:02:12;22.90;97.00
17639;DHT22;8938;53.546;9.954;2023-09-30T14:04:38;23.00;97.10
17639;DHT22;8938;53.546;9.954;2023-09-30T14:07:04;22.70;97.00
17639;DHT22;8938;53.546;9.954;2023-09-30T14:09:30;22.60;97.30
17639;DHT22;8938;53.546;9.954;2023-09-30T14:11:56;22.60;97.40
17639;DHT22;8938;53.546;9.954;2023-09-30T14:14:24;22.50;97.50
17639;DHT22;8938;53.546;9.954;2023-09-30T14:16:50;22.40;97.50
17639;DHT22;8938;53.546;9.954;2023-09-30T14:19:16;22.40;97.70
17639;DHT22;8938;53.546;9.954;2023-09-30T14:21:41;22.30;97.80
17639;DHT22;8938;53.546;9.954;2023-09-30T14:24:07;22.30;97.80
17639;DHT22;8938;53.546;9.954;2023-09-30T14:26:33;22.10;97.80
17639;DHT22;8938;53.546;9.954;2023-09-30T14:28:59;22.00;97.90
17639;DHT22;8938;53.546;9.954;2023-09-30T14:31:24;21.90;98.10
17639;DHT22;8938;53.546;9.954;2023-09-30T14:33:50;21.90;98.20
17639;DHT22;8938;53.546;9.954;2023-09-30T14:36:17;21.90;98.20
17639;DHT22;8938;53.546;9.954;2023-09-30T14:38:43;22.00;98.30
17639;DHT22;8938;53.546;9.954;2023-09-30T14:41:10;22.00;98.30
17639;DHT22;8938;53.546;9.954;2023-09-30T14:43:40;21.90;98.30
17639;DHT22;8938;53.546;9.954;2023-09-30T14:46:06;22.00;98.70
17639;DHT22;8938;53.546;9.954;2023-09-30T14:48:31;21.90;98.30
17639;DHT22;8938;53.546;9.954;2023-09-30T14:50:57;21.80;98.40
17639;DHT22;8938;53.546;9.954;2023-09-30T14:53:23;21.80;98.60
17639;DHT22;8938;53.546;9.954;2023-09-30T14:55:49;21.80;98.70
17639;DHT22;8938;53.546;9.954;2023-09-30T14:58:14;21.80;98.80
17639;DHT22;8938;53.546;9.954;2023-09-30T15:00:40;21.90;98.80
17639;DHT22;8938;53.546;9.954;2023-09-30T15:03:05;21.90;98.90
17639;DHT22;8938;53.546;9.954;2023-09-30T15:05:32;22.00;98.80
17639;DHT22;8938;53.546;9.954;2023-09-30T15:07:57;22.00;98.80
17639;DHT22;8938;53.546;9.954;2023-09-30T15:10:25;22.00;98.70
17639;DHT22;8938;53.546;9.954;2023-09-30T15:12:50;22.00;98.80
17639;DHT22;8938;53.546;9.954;2023-09-30T15:15:16;22.00;98.80
17639;DHT22;8938;53.546;9.954;2023-09-30T15:17:41;22.00;99.00
17639;DHT22;8938;53.546;9.954;2023-09-30T15:20:07;22.00;99.00
17639;DHT22;8938;53.546;9.954;2023-09-30T15:22:33;21.90;99.00
17639;DHT22;8938;53.546;9.954;2023-09-30T15:24:59;21.90;99.00
17639;DHT22;8938;53.546;9.954;2023-09-30T15:27:25;21.90;99.10
17639;DHT22;8938;53.546;9.954;2023-09-30T15:29:51;21.90;99.00
17639;DHT22;8938;53.546;9.954;2023-09-30T15:32:16;21.90;99.10
17639;DHT22;8938;53.546;9.954;2023-09-30T15:34:42;21.90;99.20
17639;DHT22;8938;53.546;9.954;2023-09-30T15:37:08;21.90;99.20
17639;DHT22;8938;53.546;9.954;2023-09-30T15:39:39;21.80;99.20
17639;DHT22;8938;53.546;9.954;2023-09-30T15:42:05;21.90;99.30
17639;DHT22;8938;53.546;9.954;2023-09-30T15:44:31;21.80;99.20
17639;DHT22;8938;53.546;9.954;2023-09-30T15:46:56;21.70;99.30
17639;DHT22;8938;53.546;9.954;2023-09-30T15:49:22;21.70;99.50
17639;DHT22;8938;53.546;9.954;2023-09-30T15:51:48;21.60;99.60
17639;DHT22;8938;53.546;9.954;2023-09-30T15:54:13;21.60;99.60
17639;DHT22;8938;53.546;9.954;2023-09-30T15:56:40;21.60;99.90
17639;DHT22;8938;53.546;9.954;2023-09-30T15:59:07;21.70;99.80
17639;DHT22;8938;53.546;9.954;2023-09-30T16:01:33;21.60;99.90
17639;DHT22;8938;53.546;9.954;2023-09-30T16:03:58;21.70;99.90
17639;DHT22;8938;53.546;9.954;2023-09-30T16:06:24;21.80;99.90
17639;DHT22;8938;53.546;9.954;2023-09-30T16:08:49;21.70;99.90
17639;DHT22;8938;53.546;9.954;2023-09-30T16:11:15;21.70;99.90
17639;DHT22;8938;53.546;9.954;2023-09-30T16:13:42;21.70;99.90